.
WxDataArchive / Data Records for 2009-01-04
2009-01-03 January 2009 2009-01-05

Data Records for Sunday, 04 January 2009

Time	Temp	Chill	HIndex	Humid	Dewpt	 Wind 	HiWind	WindDir	Rain 	Barom 
-----	----	-----	------	-----	-----	------	------	-------	-----	----- 
00:00	30.0	24.7	30.0	76	23.4	5	12	112	0.00	30.071 
00:05	30.0	24.7	30.0	76	23.4	5	11	90	0.00	30.061 
00:10	30.0	24.7	30.0	76	23.4	5	11	90	0.00	30.060 
00:15	30.0	23.8	30.0	76	23.4	6	11	90	0.00	30.059 
00:20	30.0	23.8	30.0	76	23.4	6	13	112	0.00	30.059 
00:25	30.0	24.7	30.0	76	23.4	5	9	112	0.00	30.062 
00:30	30.1	24.8	30.1	76	23.5	5	12	90	0.00	30.061 
00:35	30.1	24.8	30.1	76	23.5	5	8	90	0.00	30.062 
00:40	30.1	25.9	30.1	76	23.5	4	10	90	0.00	30.059 
00:45	30.1	24.8	30.1	76	23.5	5	11	90	0.00	30.048 
00:50	30.1	25.9	30.1	76	23.5	4	7	112	0.00	30.053 
00:55	30.1	25.9	30.1	76	23.5	4	11	112	0.00	30.059 
01:00	30.1	25.9	30.1	76	23.5	4	9	112	0.00	30.059 
01:05	30.1	24.8	30.1	77	23.8	5	10	90	0.00	30.040 
01:10	30.1	30.1	30.1	77	23.8	3	11	112	0.00	30.042 
01:15	30.1	30.1	30.1	77	23.8	3	7	112	0.00	30.044 
01:20	30.1	25.9	30.1	77	23.8	4	9	90	0.00	30.048 
01:25	30.1	24.8	30.1	77	23.8	5	12	90	0.00	30.035 
01:30	30.1	24.8	30.1	78	24.1	5	10	90	0.00	30.026 
01:35	30.1	25.9	30.1	78	24.1	4	10	112	0.00	30.027 
01:40	30.1	25.9	30.1	78	24.1	4	12	112	0.00	30.037 
01:45	30.1	24.8	30.1	77	23.8	5	10	112	0.00	30.025 
01:50	30.1	24.0	30.1	77	23.8	6	13	112	0.00	30.011 
01:55	30.3	24.2	30.3	77	24.0	6	14	90	0.00	30.020 
02:00	30.3	23.4	30.3	77	24.0	7	15	90	0.00	30.011 
02:05	30.3	23.4	30.3	77	24.0	7	16	90	0.00	30.009 
02:10	30.3	25.1	30.3	77	24.0	5	10	90	0.00	30.008 
02:15	30.3	25.1	30.3	77	24.0	5	12	112	0.00	30.009 
02:20	30.4	25.2	30.4	77	24.1	5	12	90	0.00	30.008 
02:25	30.4	25.2	30.4	77	24.1	5	12	90	0.00	30.010 
02:30	30.4	24.3	30.4	77	24.1	6	13	90	0.00	30.005 
02:35	30.4	25.2	30.4	77	24.1	5	10	90	0.00	30.006 
02:40	30.3	24.2	30.3	77	24.0	6	15	90	0.00	30.001 
02:45	30.3	24.2	30.3	77	24.0	6	12	90	0.00	30.003 
02:50	30.3	25.1	30.3	77	24.0	5	11	112	0.00	30.003 
02:55	30.3	23.4	30.3	77	24.0	7	13	90	0.00	29.991 
03:00	30.3	25.1	30.3	77	24.0	5	11	90	0.00	29.987 
03:05	30.3	25.1	30.3	77	24.0	5	12	90	0.00	29.987 
03:10	30.3	26.1	30.3	77	24.0	4	8	112	0.00	29.990 
03:15	30.3	26.1	30.3	77	24.0	4	8	112	0.00	29.981 
03:20	30.4	25.2	30.4	77	24.1	5	11	90	0.00	29.977 
03:25	30.4	24.3	30.4	77	24.1	6	13	112	0.00	29.978 
03:30	30.4	25.2	30.4	77	24.1	5	12	112	0.00	29.979 
03:35	30.4	25.2	30.4	77	24.1	5	11	112	0.00	29.974 
03:40	30.4	30.4	30.4	78	24.4	3	10	112	0.00	29.974 
03:45	30.4	26.2	30.4	80	25.0	4	10	90	0.00	29.975 
03:50	30.4	26.2	30.4	82	25.6	4	9	90	0.00	29.976 
03:55	30.6	26.5	30.6	84	26.4	4	10	90	0.02	29.984 
04:00	30.6	26.5	30.6	84	26.4	4	10	112	0.00	29.978 
04:05	30.6	30.6	30.6	86	26.9	3	7	112	0.03	29.979 
04:10	30.6	30.6	30.6	87	27.2	2	4	90	0.00	29.985 
04:15	30.4	26.2	30.4	88	27.3	4	9	90	0.00	29.976 
04:20	30.4	26.2	30.4	88	27.3	4	6	90	0.01	29.971 
04:25	30.4	30.4	30.4	89	27.6	2	6	135	0.00	29.972 
04:30	30.4	30.4	30.4	89	27.6	3	7	135	0.00	29.970 
04:35	30.4	30.4	30.4	89	27.6	3	6	135	0.00	29.968 
04:40	30.4	30.4	30.4	89	27.6	3	6	135	0.00	29.963 
04:45	30.4	30.4	30.4	89	27.6	3	6	135	0.00	29.957 
04:50	30.4	30.4	30.4	90	27.8	2	6	135	0.00	29.954 
04:55	30.4	30.4	30.4	90	27.8	2	5	135	0.00	29.954 
05:00	30.6	30.6	30.6	90	28.0	2	5	135	0.00	29.956 
05:05	30.6	30.6	30.6	90	28.0	2	5	135	0.00	29.956 
05:10	30.7	30.7	30.7	90	28.1	1	4	135	0.00	29.957 
05:15	30.7	30.7	30.7	90	28.1	1	4	135	0.00	29.961 
05:20	30.9	30.9	30.9	90	28.3	2	5	135	0.00	29.960 
05:25	30.9	30.9	30.9	90	28.3	2	4	135	0.00	29.958 
05:30	31.0	31.0	31.0	90	28.4	2	6	135	0.00	29.948 
05:35	31.0	31.0	31.0	90	28.4	2	5	135	0.00	29.947 
05:40	31.0	31.0	31.0	90	28.4	2	5	135	0.00	29.945 
05:45	31.0	31.0	31.0	90	28.4	3	5	135	0.00	29.943 
05:50	31.0	31.0	31.0	90	28.4	3	5	135	0.00	29.944 
05:55	31.2	31.2	31.2	90	28.6	2	6	135	0.00	29.943 
06:00	31.2	31.2	31.2	90	28.6	3	9	135	0.00	29.939 
06:05	31.3	31.3	31.3	90	28.7	1	4	135	0.00	29.946 
06:10	31.3	31.3	31.3	90	28.7	2	6	135	0.00	29.946 
06:15	31.5	31.5	31.5	90	28.9	2	6	135	0.00	29.943 
06:20	31.5	31.5	31.5	90	28.9	3	5	135	0.00	29.946 
06:25	31.6	31.6	31.6	90	29.0	2	6	135	0.00	29.947 
06:30	31.8	31.8	31.8	91	29.5	2	4	135	0.00	29.947 
06:35	31.9	31.9	31.9	91	29.6	2	5	135	0.00	29.943 
06:40	32.1	32.1	32.1	91	29.8	2	4	135	0.00	29.944 
06:45	32.2	32.2	32.2	91	29.9	2	4	135	0.00	29.941 
06:50	32.2	32.2	32.2	91	29.9	3	6	135	0.00	29.934 
06:55	32.2	32.2	32.2	91	29.9	2	4	135	0.00	29.940 
07:00	32.1	32.1	32.1	92	30.0	2	4	135	0.00	29.944 
07:05	32.1	32.1	32.1	92	30.0	2	4	135	0.00	29.942 
07:10	32.2	32.2	32.2	92	30.1	3	6	135	0.00	29.942 
07:15	32.2	32.2	32.2	92	30.1	2	4	135	0.00	29.944 
07:20	32.2	32.2	32.2	92	30.1	2	5	135	0.00	29.943 
07:25	32.2	32.2	32.2	92	30.1	2	4	135	0.00	29.938 
07:30	32.2	32.2	32.2	93	30.4	2	3	135	0.00	29.940 
07:35	32.4	32.4	32.4	93	30.6	2	4	135	0.00	29.943 
07:40	32.4	32.4	32.4	93	30.6	2	4	135	0.00	29.943 
07:45	32.4	32.4	32.4	93	30.6	2	4	135	0.00	29.941 
07:50	32.4	32.4	32.4	93	30.6	1	3	135	0.00	29.945 
07:55	32.5	32.5	32.5	93	30.7	2	4	135	0.00	29.942 
08:00	32.5	32.5	32.5	93	30.7	2	4	135	0.00	29.941 
08:05	32.5	32.5	32.5	94	31.0	1	3	135	0.00	29.944 
08:10	32.5	32.5	32.5	94	31.0	2	5	135	0.00	29.945 
08:15	32.5	32.5	32.5	94	31.0	1	3	135	0.00	29.943 
08:20	32.5	32.5	32.5	94	31.0	2	4	135	0.00	29.940 
08:25	32.5	32.5	32.5	94	31.0	1	3	135	0.00	29.943 
08:30	32.5	32.5	32.5	94	31.0	0	2	135	0.00	29.944 
08:35	32.5	32.5	32.5	94	31.0	1	3	135	0.00	29.940 
08:40	32.5	32.5	32.5	94	31.0	2	4	135	0.00	29.940 
08:45	32.5	32.5	32.5	95	31.2	1	3	135	0.00	29.937 
08:50	32.5	32.5	32.5	95	31.2	1	3	135	0.00	29.942 
08:55	32.7	32.7	32.7	95	31.4	1	4	135	0.00	29.942 
09:00	32.7	32.7	32.7	95	31.4	1	2	135	0.00	29.944 
09:05	32.7	32.7	32.7	95	31.4	1	3	135	0.00	29.944 
09:10	32.7	32.7	32.7	95	31.4	1	2	135	0.00	29.944 
09:15	32.7	32.7	32.7	95	31.4	1	3	135	0.00	29.944 
09:20	32.7	32.7	32.7	95	31.4	1	3	135	0.00	29.943 
09:25	32.7	32.7	32.7	95	31.4	0	2	135	0.00	29.945 
09:30	32.8	32.8	32.8	95	31.5	0	2	135	0.00	29.947 
09:35	32.8	32.8	32.8	95	31.5	0	1	135	0.00	29.947 
09:40	32.8	32.8	32.8	95	31.5	0	1	135	0.00	29.947 
09:45	32.8	32.8	32.8	96	31.8	1	2	135	0.01	29.946 
09:50	32.8	32.8	32.8	96	31.8	0	1	135	0.00	29.945 
09:55	32.8	32.8	32.8	96	31.8	0	2	135	0.00	29.946 
10:00	32.9	32.9	32.9	96	31.9	0	1	135	0.00	29.947 
10:05	32.9	32.9	32.9	96	31.9	0	1	135	0.00	29.949 
10:10	32.9	32.9	32.9	96	31.9	0	1	135	0.00	29.950 
10:15	33.1	33.1	33.1	96	32.1	0	1	135	0.00	29.948 
10:20	33.1	33.1	33.1	96	32.1	0	1	135	0.01	29.947 
10:25	33.2	33.2	33.2	96	32.2	0	1	135	0.00	29.946 
10:30	33.4	33.4	33.4	96	32.4	0	1	135	0.00	29.944 
10:35	33.5	33.5	33.5	96	32.5	1	2	135	0.01	29.945 
10:40	33.5	33.5	33.5	96	32.5	0	1	135	0.00	29.942 
10:45	33.7	33.7	33.7	96	32.7	1	3	135	0.01	29.940 
10:50	33.8	33.8	33.8	96	32.8	0	1	135	0.00	29.943 
10:55	34.0	34.0	34.0	96	33.0	0	2	135	0.00	29.943 
11:00	34.1	34.1	34.1	96	33.1	0	1	135	0.00	29.945 
11:05	34.1	34.1	34.1	96	33.1	0	1	135	0.00	29.946 
11:10	34.3	34.3	34.3	96	33.3	0	1	135	0.00	29.946 
11:15	34.4	34.4	34.4	96	33.4	0	1	135	0.00	29.945 
11:20	34.4	34.4	34.4	96	33.4	0	0	---	0.00	29.946 
11:25	34.6	34.6	34.6	96	33.6	0	0	---	0.00	29.947 
11:30	34.7	34.7	34.7	96	33.7	0	0	---	0.00	29.956 
11:35	35.0	35.0	35.0	96	34.0	0	0	---	0.00	29.951 
11:40	35.5	35.5	35.5	96	34.5	0	0	---	0.00	29.946 
11:45	35.9	35.9	35.9	96	34.9	0	1	135	0.00	29.947 
11:50	36.3	36.3	36.3	96	35.3	0	0	---	0.00	29.947 
11:55	36.5	36.5	36.5	96	35.5	0	0	---	0.00	29.945 
12:00	36.8	36.8	36.8	96	35.8	0	1	135	0.00	29.945 
12:05	36.9	36.9	36.9	96	35.9	0	1	135	0.00	29.944 
12:10	37.0	37.0	37.0	97	36.2	0	1	135	0.00	29.944 
12:15	37.3	37.3	37.3	97	36.5	1	2	180	0.00	29.950 
12:20	37.6	37.6	37.6	97	36.8	0	2	202	0.00	29.945 
12:25	37.9	37.9	37.9	97	37.1	0	1	202	0.00	29.945 
12:30	38.3	38.3	38.3	97	37.5	0	2	270	0.00	29.940 
12:35	39.1	39.1	39.1	97	38.3	1	3	270	0.00	29.942 
12:40	39.6	39.6	39.6	97	38.8	1	2	270	0.00	29.942 
12:45	40.2	40.2	40.2	97	39.4	2	4	270	0.00	29.948 
12:50	40.9	40.9	40.9	97	40.1	3	8	270	0.00	29.949 
12:55	41.2	41.2	41.2	97	40.4	3	7	270	0.00	29.952 
13:00	41.2	41.2	41.2	97	40.4	2	5	270	0.00	29.954 
13:05	40.9	40.9	40.9	97	40.1	3	6	270	0.00	29.956 
13:10	40.9	40.9	40.9	97	40.1	3	9	270	0.00	29.954 
13:15	40.9	40.9	40.9	97	40.1	3	12	338	0.00	29.954 
13:20	41.1	41.1	41.1	97	40.3	3	6	270	0.00	29.953 
13:25	40.9	40.9	40.9	97	40.1	3	9	270	0.00	29.954 
13:30	40.8	40.8	40.8	97	40.0	2	6	270	0.00	29.954 
13:35	40.6	40.6	40.6	97	39.8	3	9	248	0.00	29.959 
13:40	40.6	40.6	40.6	97	39.8	2	4	270	0.00	29.969 
13:45	40.3	40.3	40.3	96	39.3	3	9	292	0.00	29.970 
13:50	40.2	40.2	40.2	96	39.2	3	6	270	0.00	29.975 
13:55	39.9	39.9	39.9	96	38.9	3	9	315	0.00	29.978 
14:00	39.8	39.8	39.8	96	38.8	3	7	270	0.00	29.983 
14:05	39.2	36.4	39.2	96	38.2	4	9	270	0.00	29.985 
14:10	38.9	38.9	38.9	96	37.9	3	9	270	0.00	29.987 
14:15	38.8	38.8	38.8	96	37.8	2	7	270	0.00	29.990 
14:20	38.3	35.4	38.3	95	37.0	4	7	270	0.00	29.994 
14:25	38.2	35.2	38.2	95	36.9	4	12	270	0.00	30.000 
14:30	37.9	37.9	37.9	95	36.6	3	9	270	0.00	30.000 
14:35	37.8	37.8	37.8	95	36.5	2	5	315	0.00	30.002 
14:40	37.6	37.6	37.6	95	36.3	2	5	270	0.00	30.003 
14:45	37.6	37.6	37.6	95	36.3	1	4	270	0.00	30.005 
14:50	37.5	37.5	37.5	95	36.2	2	6	270	0.00	30.010 
14:55	37.5	37.5	37.5	95	36.2	2	4	338	0.00	30.017 
15:00	37.3	37.3	37.3	94	35.7	2	5	270	0.00	30.022 
15:05	37.3	37.3	37.3	94	35.7	3	9	292	0.00	30.022 
15:10	37.2	37.2	37.2	94	35.6	3	6	270	0.00	30.030 
15:15	37.2	37.2	37.2	93	35.4	2	6	270	0.00	30.034 
15:20	37.0	37.0	37.0	93	35.2	2	4	292	0.00	30.036 
15:25	37.0	37.0	37.0	92	34.9	2	7	270	0.00	30.040 
15:30	36.9	36.9	36.9	92	34.8	1	4	315	0.00	30.048 
15:35	36.9	36.9	36.9	92	34.8	2	7	270	0.00	30.050 
15:40	36.8	36.8	36.8	91	34.4	3	9	270	0.00	30.050 
15:45	36.6	36.6	36.6	91	34.2	2	5	248	0.00	30.051 
15:50	36.5	36.5	36.5	91	34.1	3	5	270	0.00	30.054 
15:55	36.3	36.3	36.3	91	33.9	3	9	270	0.00	30.058 
16:00	36.2	36.2	36.2	91	33.8	3	7	270	0.00	30.067 
16:05	36.2	36.2	36.2	91	33.8	2	5	270	0.00	30.066 
16:10	36.0	32.7	36.0	90	33.4	4	7	270	0.00	30.069 
16:15	36.0	36.0	36.0	90	33.4	2	12	270	0.00	30.071 
16:20	35.9	32.6	35.9	90	33.3	4	9	270	0.00	30.074 
16:25	35.9	35.9	35.9	90	33.3	3	8	270	0.00	30.074 
16:30	35.9	35.9	35.9	89	33.0	3	10	270	0.00	30.083 
16:35	35.9	35.9	35.9	89	33.0	2	4	292	0.00	30.084 
16:40	35.8	35.8	35.8	89	32.9	3	6	270	0.00	30.085 
16:45	35.8	35.8	35.8	88	32.6	2	5	338	0.00	30.083 
16:50	35.8	35.8	35.8	88	32.6	2	5	270	0.00	30.085 
16:55	35.6	35.6	35.6	88	32.4	2	5	315	0.00	30.088 
17:00	35.6	35.6	35.6	88	32.4	1	4	315	0.00	30.087 
17:05	35.6	35.6	35.6	88	32.4	1	3	338	0.00	30.087 
17:10	35.5	35.5	35.5	88	32.3	2	9	315	0.00	30.095 
17:15	35.3	35.3	35.3	87	31.8	2	6	292	0.00	30.099 
17:20	35.3	35.3	35.3	87	31.8	2	7	270	0.00	30.100 
17:25	35.2	35.2	35.2	86	31.4	3	6	270	0.00	30.103 
17:30	35.0	35.0	35.0	86	31.2	3	9	270	0.00	30.104 
17:35	35.0	35.0	35.0	85	31.0	2	4	292	0.00	30.107 
17:40	35.0	35.0	35.0	85	31.0	2	6	315	0.00	30.109 
17:45	34.9	34.9	34.9	85	30.9	2	5	315	0.00	30.115 
17:50	34.9	34.9	34.9	85	30.9	2	5	270	0.00	30.117 
17:55	34.7	34.7	34.7	85	30.7	3	6	248	0.00	30.120 
18:00	34.6	34.6	34.6	85	30.6	2	6	270	0.00	30.123 
18:05	34.4	34.4	34.4	84	30.1	2	6	292	0.00	30.128 
18:10	34.4	34.4	34.4	84	30.1	2	5	270	0.00	30.129 
18:15	34.3	34.3	34.3	84	30.0	2	7	270	0.00	30.130 
18:20	34.3	34.3	34.3	83	29.7	3	9	270	0.00	30.132 
18:25	34.4	34.4	34.4	82	29.5	2	5	248	0.00	30.132 
18:30	34.3	34.3	34.3	82	29.4	2	7	248	0.00	30.132 
18:35	34.3	34.3	34.3	82	29.4	2	6	292	0.00	30.135 
18:40	34.3	34.3	34.3	82	29.4	3	7	270	0.00	30.143 
18:45	34.3	34.3	34.3	82	29.4	2	5	315	0.00	30.144 
18:50	34.3	34.3	34.3	83	29.7	1	3	248	0.00	30.147 
18:55	34.3	34.3	34.3	83	29.7	1	3	315	0.00	30.148 
19:00	34.1	34.1	34.1	83	29.5	2	6	270	0.00	30.150 
19:05	34.1	34.1	34.1	83	29.5	2	6	270	0.00	30.151 
19:10	34.1	34.1	34.1	84	29.8	1	5	270	0.00	30.151 
19:15	34.1	34.1	34.1	83	29.5	2	7	315	0.00	30.153 
19:20	34.1	34.1	34.1	83	29.5	2	9	315	0.00	30.155 
19:25	34.1	34.1	34.1	83	29.5	1	4	315	0.00	30.160 
19:30	34.0	34.0	34.0	83	29.4	2	5	270	0.00	30.162 
19:35	33.8	33.8	33.8	83	29.2	2	5	292	0.00	30.164 
19:40	33.8	33.8	33.8	83	29.2	2	4	248	0.00	30.166 
19:45	33.8	33.8	33.8	82	28.9	3	9	270	0.00	30.166 
19:50	33.8	33.8	33.8	82	28.9	1	5	315	0.00	30.169 
19:55	33.7	33.7	33.7	82	28.8	2	6	315	0.00	30.168 
20:00	33.7	33.7	33.7	82	28.8	2	4	270	0.00	30.169 
20:05	33.5	33.5	33.5	81	28.3	2	5	315	0.00	30.170 
20:10	33.5	33.5	33.5	81	28.3	2	4	292	0.00	30.177 
20:15	33.5	33.5	33.5	80	28.0	2	6	292	0.00	30.180 
20:20	33.5	33.5	33.5	79	27.7	3	9	270	0.00	30.179 
20:25	33.4	33.4	33.4	79	27.6	2	5	292	0.00	30.180 
20:30	33.4	33.4	33.4	78	27.3	3	6	292	0.00	30.180 
20:35	33.2	33.2	33.2	77	26.8	3	7	270	0.00	30.179 
20:40	33.1	33.1	33.1	76	26.4	3	7	338	0.00	30.178 
20:45	33.1	33.1	33.1	75	26.1	3	9	315	0.00	30.181 
20:50	32.9	32.9	32.9	76	26.2	3	9	270	0.00	30.187 
20:55	32.8	32.8	32.8	76	26.1	3	6	292	0.00	30.185 
21:00	32.5	32.5	32.5	77	26.1	3	9	292	0.00	30.193 
21:05	32.2	28.3	32.2	76	25.5	4	12	270	0.00	30.197 
21:10	32.1	32.1	32.1	76	25.4	3	7	270	0.00	30.197 
21:15	31.9	31.9	31.9	76	25.2	3	11	315	0.00	30.196 
21:20	31.8	27.8	31.8	75	24.8	4	8	292	0.00	30.197 
21:25	31.5	31.5	31.5	74	24.2	3	7	315	0.00	30.197 
21:30	31.3	31.3	31.3	74	24.0	3	6	315	0.00	30.203 
21:35	31.0	31.0	31.0	74	23.7	3	10	270	0.00	30.203 
21:40	30.9	30.9	30.9	75	23.9	3	6	270	0.00	30.202 
21:45	30.7	30.7	30.7	75	23.7	3	8	270	0.00	30.200 
21:50	30.6	30.6	30.6	75	23.6	3	6	270	0.00	30.205 
21:55	30.4	30.4	30.4	74	23.1	3	9	270	0.00	30.209 
22:00	30.3	30.3	30.3	74	23.0	3	7	270	0.00	30.204 
22:05	30.3	30.3	30.3	74	23.0	2	6	270	0.00	30.207 
22:10	30.3	30.3	30.3	74	23.0	2	9	270	0.00	30.210 
22:15	30.3	30.3	30.3	73	22.7	3	6	270	0.00	30.212 
22:20	30.3	30.3	30.3	73	22.7	2	5	292	0.00	30.212 
22:25	30.3	30.3	30.3	73	22.7	1	3	270	0.00	30.212 
22:30	30.1	30.1	30.1	74	22.8	1	6	248	0.00	30.215 
22:35	30.0	30.0	30.0	72	22.1	3	11	270	0.00	30.218 
22:40	29.8	29.8	29.8	70	21.2	2	9	270	0.00	30.218 
22:45	29.5	29.5	29.5	69	20.6	2	7	270	0.00	30.215 
22:50	29.3	29.3	29.3	69	20.4	2	7	315	0.00	30.218 
22:55	29.1	29.1	29.1	69	20.2	2	5	315	0.00	30.219 
23:00	29.0	29.0	29.0	70	20.5	2	5	315	0.00	30.219 
23:05	29.0	29.0	29.0	70	20.5	2	6	338	0.00	30.214 
23:10	28.8	28.8	28.8	71	20.6	1	4	248	0.00	30.215 
23:15	28.7	28.7	28.7	72	20.8	1	3	338	0.00	30.217 
23:20	28.5	28.5	28.5	72	20.6	1	4	270	0.00	30.217 
23:25	28.5	28.5	28.5	71	20.3	1	5	292	0.00	30.215 
23:30	28.4	28.4	28.4	70	19.9	2	4	315	0.00	30.217 
23:35	28.4	28.4	28.4	70	19.9	2	10	270	0.00	30.224 
23:40	28.2	28.2	28.2	69	19.4	2	6	270	0.00	30.225 
23:45	28.1	28.1	28.1	69	19.3	2	4	248	0.00	30.225 
23:50	28.1	28.1	28.1	69	19.3	2	4	270	0.00	30.225 
23:55	27.9	27.9	27.9	69	19.1	2	4	315	0.00	30.227 

CoCoRaHS
IN-AL-39
A2 Web Hosting
Creative Commons License
GoDaddy
search engine by freefind advanced

loaded 2018-11-16 11:31:42 • last modified 2010-11-18 10:43:29
Privacy PolicyDisclaimer
• wx.awcolley.com is powered by PmWiki v.2002016 •
• all content (unless otherwise noted) © 2018 A W Colley